.
WxDataArchive / Data Records for 2015-08-10
2015-08-09 August 2015 2015-08-11

Data Records for Monday, 10 August 2015

Time	Temp	Chill	HIndex	Humid	Dewpt	 Wind 	HiWind	WindDir	Rain 	Barom
-----	----	-----	------	-----	-----	------	------	-------	-----	-----
00:00	71.8	71.8	71.8	88	68.0	0	0	---	0.00	29.917 
00:05	71.6	71.6	71.6	88	67.8	0	0	---	0.00	29.917 
00:10	71.6	71.6	71.6	88	67.8	0	0	---	0.00	29.917 
00:15	71.6	71.6	71.6	88	67.8	0	0	---	0.00	29.916 
00:20	71.6	71.6	71.6	88	67.8	0	0	---	0.00	29.916 
00:25	71.5	71.5	71.5	89	68.1	0	0	---	0.00	29.916 
00:30	71.5	71.5	71.5	88	67.7	0	0	---	0.00	29.911 
00:35	71.5	71.5	71.5	89	68.1	0	0	---	0.00	29.911 
00:40	71.5	71.5	71.5	89	68.1	0	0	---	0.00	29.911 
00:45	71.3	71.3	71.3	89	67.9	0	0	---	0.00	29.902 
00:50	71.3	71.3	71.3	89	67.9	0	0	---	0.00	29.902 
00:55	71.3	71.3	71.3	89	67.9	0	0	---	0.00	29.902 
01:00	71.1	71.1	71.1	90	68.0	0	1	90	0.00	29.900 
01:05	71.1	71.1	71.1	90	68.0	0	0	---	0.00	29.900 
01:10	70.9	70.9	70.9	90	67.8	0	0	---	0.00	29.900 
01:15	70.9	70.9	70.9	90	67.8	0	0	---	0.00	29.895 
01:20	70.8	70.8	70.8	90	67.7	0	0	---	0.00	29.895 
01:25	70.8	70.8	70.8	90	67.7	0	0	---	0.00	29.895 
01:30	70.8	70.8	70.8	91	68.0	0	0	---	0.00	29.891 
01:35	70.8	70.8	70.8	91	68.0	0	0	---	0.00	29.891 
01:40	70.8	70.8	70.8	91	68.0	0	0	---	0.00	29.891 
01:45	70.8	70.8	70.8	91	68.0	0	0	---	0.00	29.885 
01:50	70.8	70.8	70.8	91	68.0	0	0	---	0.00	29.885 
01:55	70.8	70.8	70.8	91	68.0	0	0	---	0.00	29.885 
02:00	70.8	70.8	70.8	91	68.0	0	0	---	0.00	29.884 
02:05	70.8	70.8	70.8	91	68.0	0	0	---	0.00	29.884 
02:10	70.8	70.8	70.8	91	68.0	0	0	---	0.00	29.884 
02:15	70.8	70.8	70.8	91	68.0	0	0	---	0.00	29.877 
02:20	70.8	70.8	70.8	91	68.0	0	0	---	0.00	29.877 
02:25	70.8	70.8	70.8	91	68.0	0	0	---	0.00	29.877 
02:30	70.9	70.9	70.9	91	68.1	0	0	---	0.00	29.867 
02:35	70.9	70.9	70.9	91	68.1	0	0	---	0.00	29.867 
02:40	70.9	70.9	70.9	91	68.1	0	0	---	0.00	29.867 
02:45	70.9	70.9	70.9	91	68.1	0	0	---	0.00	29.856 
02:50	70.9	70.9	70.9	91	68.1	0	0	---	0.00	29.856 
02:55	70.9	70.9	70.9	91	68.1	0	0	---	0.00	29.856 
03:00	70.9	70.9	70.9	91	68.1	0	0	---	0.00	29.854 
03:05	70.9	70.9	70.9	91	68.1	0	0	---	0.00	29.854 
03:10	70.9	70.9	70.9	91	68.1	0	0	---	0.00	29.854 
03:15	70.9	70.9	70.9	91	68.1	0	0	---	0.00	29.850 
03:20	70.8	70.8	70.8	91	68.0	0	0	---	0.00	29.850 
03:25	70.6	70.6	70.6	91	67.8	0	0	---	0.00	29.850 
03:30	70.4	70.4	70.4	91	67.6	0	0	---	0.00	29.841 
03:35	70.3	70.3	70.3	91	67.5	0	0	---	0.00	29.841 
03:40	70.1	70.1	70.1	91	67.3	0	0	---	0.00	29.841 
03:45	70.1	70.1	70.1	91	67.3	0	0	---	0.00	29.839 
03:50	69.9	69.9	69.9	91	67.1	0	0	---	0.00	29.839 
03:55	69.8	69.8	69.8	91	67.0	0	0	---	0.00	29.839 
04:00	69.6	69.6	69.6	92	67.2	0	1	90	0.00	29.837 
04:05	69.6	69.6	69.6	92	67.2	0	1	90	0.00	29.837 
04:10	69.4	69.4	69.4	92	67.0	0	0	---	0.00	29.837 
04:15	69.4	69.4	69.4	92	67.0	0	0	---	0.00	29.837 
04:20	69.3	69.3	69.3	92	66.9	0	0	---	0.00	29.837 
04:25	69.1	69.1	69.1	92	66.7	0	0	---	0.00	29.837 
04:30	69.1	69.1	69.1	92	66.7	0	1	90	0.00	29.839 
04:35	69.1	69.1	69.1	92	66.7	0	0	---	0.00	29.839 
04:40	69.1	69.1	69.1	93	67.0	0	0	---	0.00	29.839 
04:45	69.1	69.1	69.1	93	67.0	0	0	---	0.00	29.841 
04:50	68.9	68.9	68.9	93	66.8	0	0	---	0.00	29.841 
04:55	68.9	68.9	68.9	93	66.8	0	0	---	0.00	29.841 
05:00	68.8	68.8	68.8	93	66.7	0	0	---	0.00	29.844 
05:05	68.6	68.6	68.6	93	66.5	0	0	---	0.00	29.844 
05:10	68.4	68.4	68.4	93	66.3	0	0	---	0.00	29.844 
05:15	68.3	68.3	68.3	93	66.2	0	0	---	0.00	29.838 
05:20	68.3	68.3	68.3	93	66.2	0	0	---	0.00	29.838 
05:25	68.1	68.1	68.1	93	66.0	0	0	---	0.00	29.838 
05:30	68.1	68.1	68.1	93	66.0	0	0	---	0.00	29.840 
05:35	67.9	67.9	67.9	93	65.8	0	0	---	0.00	29.840 
05:40	67.8	67.8	67.8	94	66.0	0	1	90	0.00	29.840 
05:45	67.9	67.9	67.9	94	66.1	0	0	---	0.00	29.836 
05:50	67.8	67.8	67.8	94	66.0	0	0	---	0.00	29.836 
05:55	67.8	67.8	67.8	94	66.0	0	0	---	0.00	29.836 
06:00	67.8	67.8	67.8	94	66.0	0	0	---	0.00	29.836 
06:05	67.8	67.8	67.8	94	66.0	0	0	---	0.00	29.836 
06:10	67.8	67.8	67.8	94	66.0	0	0	---	0.00	29.836 
06:15	67.9	67.9	67.9	94	66.1	0	0	---	0.00	29.833 
06:20	67.9	67.9	67.9	94	66.1	0	0	---	0.00	29.833 
06:25	67.9	67.9	67.9	94	66.1	0	0	---	0.00	29.833 
06:30	68.1	68.1	68.1	94	66.3	0	0	---	0.00	29.834 
06:35	68.1	68.1	68.1	94	66.3	0	0	---	0.00	29.834 
06:40	68.1	68.1	68.1	94	66.3	0	0	---	0.00	29.834 
06:45	68.3	68.3	68.3	94	66.5	0	0	---	0.00	29.833 
06:50	68.3	68.3	68.3	94	66.5	0	0	---	0.00	29.833 
06:55	68.3	68.3	68.3	94	66.5	0	0	---	0.00	29.833 
07:00	68.4	68.4	68.4	94	66.6	0	0	---	0.00	29.829 
07:05	68.4	68.4	68.4	94	66.6	0	0	---	0.00	29.829 
07:10	68.6	68.6	68.6	94	66.8	0	0	---	0.00	29.829 
07:15	68.6	68.6	68.6	94	66.8	0	0	---	0.00	29.826 
07:20	68.6	68.6	68.6	94	66.8	0	0	---	0.00	29.826 
07:25	68.6	68.6	68.6	94	66.8	0	0	---	0.00	29.826 
07:30	68.6	68.6	68.6	94	66.8	0	0	---	0.00	29.831 
07:35	68.8	68.8	68.8	94	67.0	0	0	---	0.00	29.831 
07:40	68.8	68.8	68.8	94	67.0	0	0	---	0.00	29.831 
07:45	68.8	68.8	68.8	94	67.0	0	0	---	0.00	29.827 
07:50	68.9	68.9	68.9	94	67.1	0	0	---	0.00	29.827 
07:55	68.9	68.9	68.9	94	67.1	0	1	90	0.00	29.827 
08:00	68.9	68.9	68.9	94	67.1	0	0	---	0.00	29.821 
08:05	68.9	68.9	68.9	94	67.1	0	0	---	0.00	29.821 
08:10	69.1	69.1	69.1	94	67.3	0	0	---	0.00	29.821 
08:15	69.1	69.1	69.1	94	67.3	0	0	---	0.00	29.818 
08:20	69.3	69.3	69.3	94	67.5	0	0	---	0.00	29.818 
08:25	69.4	69.4	69.4	94	67.6	0	0	---	0.00	29.818 
08:30	69.6	69.6	69.6	94	67.8	0	0	---	0.00	29.818 
08:35	69.8	69.8	69.8	93	67.7	0	0	---	0.00	29.818 
08:40	69.9	69.9	69.9	93	67.8	0	1	90	0.00	29.818 
08:45	70.1	70.1	70.1	93	68.0	0	0	---	0.00	29.820 
08:50	70.3	70.3	70.3	93	68.2	0	1	90	0.00	29.820 
08:55	70.3	70.3	70.3	92	67.9	0	2	90	0.00	29.820 
09:00	70.4	70.4	70.4	92	68.0	0	1	90	0.00	29.819 
09:05	70.4	70.4	70.4	92	68.0	0	1	90	0.00	29.819 
09:10	70.6	70.6	70.6	91	67.8	0	1	90	0.00	29.819 
09:15	70.8	70.8	70.8	91	68.0	0	1	90	0.00	29.824 
09:20	70.8	70.8	70.8	91	68.0	0	0	---	0.00	29.824 
09:25	70.9	70.9	70.9	90	67.8	0	1	90	0.00	29.824 
09:30	70.9	70.9	70.9	90	67.8	0	1	90	0.00	29.824 
09:35	71.1	71.1	71.1	89	67.7	0	0	---	0.00	29.824 
09:40	71.3	71.3	71.3	89	67.9	0	1	90	0.00	29.824 
09:45	71.3	71.3	71.3	89	67.9	0	1	90	0.00	29.824 
09:50	71.5	71.5	71.5	88	67.7	0	0	---	0.00	29.824 
09:55	71.6	71.6	71.6	88	67.8	0	1	90	0.00	29.824 
10:00	71.8	71.8	71.8	88	68.0	0	0	---	0.00	29.818 
10:05	72.0	72.0	72.0	87	67.9	0	1	90	0.00	29.818 
10:10	72.1	72.1	72.1	87	68.0	0	1	90	0.00	29.818 
10:15	72.3	72.3	72.3	86	67.9	0	1	90	0.00	29.823 
10:20	72.5	72.5	72.5	86	68.1	0	2	90	0.00	29.823 
10:25	72.8	72.8	72.8	85	68.0	0	1	90	0.00	29.823 
10:30	73.3	73.3	73.3	85	68.5	0	1	90	0.00	29.819 
10:35	73.9	73.9	73.9	84	68.7	0	1	90	0.00	29.819 
10:40	74.6	74.6	74.6	83	69.1	0	2	90	0.00	29.819 
10:45	75.4	75.4	75.9	82	69.5	0	2	90	0.00	29.811 
10:50	76.7	76.7	78.0	81	70.4	0	1	90	0.00	29.811 
10:55	77.2	77.2	78.9	79	70.2	0	1	90	0.00	29.811 
11:00	77.2	77.2	78.9	79	70.2	0	3	90	0.00	29.812 
11:05	77.2	77.2	78.9	79	70.2	0	1	90	0.00	29.812 
11:10	77.2	77.2	78.9	78	69.8	0	3	90	0.00	29.812 
11:15	77.2	77.2	78.9	78	69.8	0	1	90	0.00	29.812 
11:20	77.2	77.2	78.9	78	69.8	0	2	90	0.00	29.812 
11:25	77.0	77.0	78.6	78	69.6	0	2	90	0.00	29.812 
11:30	77.2	77.2	78.9	79	70.2	0	1	90	0.00	29.812 
11:35	77.4	77.4	79.3	78	70.0	0	1	90	0.00	29.812 
11:40	77.2	77.2	78.9	79	70.2	0	1	90	0.00	29.812 
11:45	77.2	77.2	78.9	79	70.2	0	1	90	0.00	29.817 
11:50	77.4	77.4	79.3	79	70.4	0	1	90	0.00	29.817 
11:55	77.4	77.4	79.3	78	70.0	0	2	90	0.00	29.817 
12:00	77.7	77.7	79.8	79	70.7	0	1	90	0.00	29.817 
12:05	78.3	78.3	80.8	78	70.9	0	2	90	0.00	29.817 
12:10	78.5	78.5	81.1	77	70.7	0	1	90	0.00	29.817 
12:15	78.6	78.6	81.2	77	70.8	0	1	90	0.00	29.810 
12:20	78.8	78.8	81.5	76	70.6	0	1	90	0.00	29.810 
12:25	78.8	78.8	81.5	76	70.6	0	1	90	0.00	29.810 
12:30	78.8	78.8	81.5	76	70.6	0	1	90	0.00	29.805 
12:35	78.6	78.6	81.2	77	70.8	0	1	90	0.00	29.805 
12:40	78.3	78.3	80.7	77	70.5	0	1	90	0.00	29.805 
12:45	77.9	77.9	80.1	78	70.5	0	1	90	0.00	29.805 
12:50	77.7	77.7	79.7	78	70.3	0	1	90	0.00	29.805 
12:55	77.7	77.7	79.8	79	70.7	0	1	90	0.00	29.805 
13:00	77.7	77.7	79.7	78	70.3	1	3	90	0.00	29.803 
13:05	77.9	77.9	80.1	78	70.5	0	2	90	0.00	29.803 
13:10	78.1	78.1	80.4	78	70.7	0	1	90	0.00	29.803 
13:15	78.5	78.5	81.1	77	70.7	0	2	90	0.00	29.797 
13:20	79.2	79.2	82.3	77	71.3	0	1	90	0.00	29.797 
13:25	79.8	79.8	83.2	75	71.1	1	4	270	0.00	29.797 
13:30	80.5	80.5	84.5	75	71.8	0	2	270	0.00	29.786 
13:35	80.7	80.7	84.4	72	70.8	1	4	315	0.00	29.786 
13:40	80.5	80.5	84.2	73	71.0	1	4	315	0.00	29.786 
13:45	81.1	81.1	85.5	74	72.0	0	3	315	0.00	29.772 
13:50	81.4	81.4	85.5	71	71.1	1	3	315	0.00	29.772 
13:55	81.6	81.6	85.7	70	70.8	1	4	270	0.00	29.772 
14:00	81.2	81.2	85.0	70	70.5	1	3	270	0.00	29.770 
14:05	81.2	81.2	85.0	70	70.5	0	3	270	0.00	29.770 
14:10	81.8	81.8	86.3	71	71.5	1	3	270	0.00	29.770 
14:15	82.2	82.2	86.6	69	71.0	1	5	315	0.00	29.759 
14:20	82.4	82.4	86.7	68	70.8	2	4	315	0.00	29.759 
14:25	82.0	82.0	86.0	68	70.4	2	4	315	0.00	29.759 
14:30	82.4	82.4	86.7	68	70.8	1	5	270	0.00	29.755 
14:35	82.8	82.8	87.0	66	70.3	2	4	270	0.00	29.755 
14:40	82.8	82.8	87.2	67	70.7	1	4	270	0.00	29.755 
14:45	82.8	82.8	87.2	67	70.7	1	4	270	0.00	29.754 
14:50	82.6	82.6	86.6	66	70.1	1	2	270	0.00	29.754 
14:55	82.6	82.6	86.6	66	70.1	1	4	270	0.00	29.754 
15:00	82.4	82.4	86.5	67	70.3	2	4	315	0.00	29.746 
15:05	82.4	82.4	86.7	68	70.8	2	5	270	0.00	29.746 
15:10	82.4	82.4	86.7	68	70.8	1	3	270	0.00	29.746 
15:15	82.4	82.4	86.5	67	70.3	1	4	270	0.00	29.741 
15:20	82.8	82.8	87.5	68	71.1	1	3	270	0.00	29.741 
15:25	83.2	83.2	87.5	65	70.2	2	5	292	0.00	29.741 
15:30	83.6	83.6	87.9	64	70.1	2	3	292	0.00	29.732 
15:35	84.0	84.0	88.4	63	70.0	1	4	292	0.00	29.732 
15:40	83.8	83.8	87.7	62	69.4	3	7	270	0.00	29.732 
15:45	81.6	81.6	84.4	63	67.8	5	11	270	0.00	29.742 
15:50	78.8	78.8	80.8	65	66.0	3	6	315	0.00	29.742 
15:55	77.0	77.0	78.8	69	66.0	2	6	292	0.00	29.742 
16:00	74.9	74.9	74.9	73	65.6	2	6	315	0.00	29.748 
16:05	73.9	73.9	73.9	77	66.2	1	3	315	0.00	29.748 
16:10	73.2	73.2	73.2	78	65.9	0	1	315	0.00	29.748 
16:15	73.0	73.0	73.0	79	66.1	0	1	315	0.00	29.764 
16:20	72.8	72.8	72.8	81	66.6	0	1	315	0.00	29.764 
16:25	73.5	73.5	73.5	82	67.7	0	1	315	0.00	29.764 
16:30	74.4	74.4	74.4	80	67.8	0	2	315	0.00	29.748 
16:35	75.3	75.3	76.3	77	67.6	0	2	315	0.00	29.748 
16:40	76.3	76.3	77.7	75	67.8	0	2	315	0.00	29.748 
16:45	77.4	77.4	79.3	73	68.0	1	3	315	0.00	29.751 
16:50	78.1	78.1	80.2	70	67.5	1	4	292	0.00	29.751 
16:55	78.8	78.8	81.1	70	68.2	1	3	292	0.00	29.751 
17:00	79.2	79.2	81.5	68	67.7	1	3	292	0.00	29.748 
17:05	79.8	79.8	82.4	68	68.3	1	4	292	0.00	29.748 
17:10	79.9	79.9	82.5	67	67.9	2	5	315	0.00	29.748 
17:15	80.3	80.3	83.2	68	68.8	1	3	315	0.00	29.741 
17:20	80.7	80.7	83.8	68	69.1	1	5	315	0.00	29.741 
17:25	80.7	80.7	83.5	66	68.3	2	4	292	0.00	29.741 
17:30	80.7	80.7	83.8	68	69.1	2	5	315	0.00	29.741 
17:35	80.3	80.3	83.3	69	69.2	1	4	338	0.00	29.741 
17:40	79.9	79.9	82.8	70	69.2	1	4	315	0.00	29.741 
17:45	79.4	79.4	82.0	70	68.7	1	4	338	0.00	29.739 
17:50	79.2	79.2	81.8	71	69.0	1	3	338	0.00	29.739 
17:55	79.2	79.2	81.9	72	69.4	1	4	292	0.00	29.739 
18:00	79.8	79.8	82.9	72	69.9	1	3	292	0.00	29.736 
18:05	79.9	79.9	82.9	71	69.6	1	3	292	0.00	29.736 
18:10	79.8	79.8	82.6	70	69.1	1	3	292	0.00	29.736 
18:15	79.8	79.8	82.7	71	69.5	1	4	292	0.00	29.740 
18:20	79.8	79.8	82.6	70	69.1	2	4	292	0.00	29.740 
18:25	79.4	79.4	81.6	65	66.6	2	6	292	0.00	29.740 
18:30	79.0	79.0	81.2	67	67.1	2	6	338	0.00	29.744 
18:35	78.8	78.8	81.0	68	67.3	1	4	338	0.00	29.744 
18:40	78.8	78.8	81.1	69	67.7	1	3	338	0.00	29.744 
18:45	78.6	78.6	80.8	70	68.0	1	5	292	0.00	29.753 
18:50	78.5	78.5	80.8	71	68.3	1	3	292	0.00	29.753 
18:55	78.3	78.3	80.5	72	68.5	1	3	292	0.00	29.753 
19:00	78.3	78.3	80.5	72	68.5	1	4	292	0.00	29.734 
19:05	78.3	78.3	80.6	73	68.9	1	4	292	0.00	29.734 
19:10	78.3	78.3	80.6	73	68.9	0	5	292	0.00	29.734 
19:15	78.1	78.1	80.3	73	68.7	1	3	338	0.00	29.735 
19:20	78.1	78.1	80.3	74	69.1	0	3	338	0.00	29.735 
19:25	78.1	78.1	80.3	74	69.1	0	1	338	0.00	29.735 
19:30	78.1	78.1	80.3	74	69.1	0	2	338	0.00	29.731 
19:35	78.3	78.3	80.6	74	69.3	0	1	338	0.00	29.731 
19:40	78.3	78.3	80.6	74	69.3	0	2	338	0.00	29.731 
19:45	78.3	78.3	80.6	74	69.3	0	2	338	0.00	29.740 
19:50	78.3	78.3	80.6	73	68.9	0	2	338	0.00	29.740 
19:55	78.1	78.1	80.3	73	68.7	0	2	315	0.00	29.740 
20:00	77.7	77.7	79.7	73	68.3	2	4	315	0.00	29.742 
20:05	77.6	77.6	79.5	73	68.2	1	3	315	0.00	29.742 
20:10	77.4	77.4	79.3	74	68.4	0	3	315	0.00	29.742 
20:15	77.4	77.4	79.3	74	68.4	0	3	315	0.00	29.753 
20:20	77.2	77.2	79.0	75	68.6	1	3	315	0.00	29.753 
20:25	76.8	76.8	78.4	75	68.3	0	2	315	0.00	29.753 
20:30	76.7	76.7	78.3	75	68.2	0	3	315	0.00	29.761 
20:35	76.5	76.5	78.0	76	68.4	0	2	315	0.00	29.761 
20:40	76.3	76.3	77.6	77	68.5	0	2	315	0.00	29.761 
20:45	76.1	76.1	77.4	77	68.3	1	3	315	0.00	29.770 
20:50	76.0	76.0	77.2	78	68.6	0	1	315	0.00	29.770 
20:55	75.8	75.8	76.9	78	68.4	0	1	315	0.00	29.770 
21:00	75.6	75.6	76.5	79	68.6	0	0	---	0.00	29.775 
21:05	75.4	75.4	76.2	79	68.4	0	2	315	0.00	29.775 
21:10	75.3	75.3	76.1	79	68.3	1	3	315	0.00	29.775 
21:15	75.1	75.1	76.0	78	67.8	0	2	315	0.00	29.781 
21:20	74.9	74.9	74.9	78	67.6	0	1	315	0.00	29.781 
21:25	74.7	74.7	74.7	79	67.7	0	1	315	0.00	29.781 
21:30	74.6	74.6	74.6	79	67.6	0	0	---	0.00	29.782 
21:35	74.4	74.4	74.4	79	67.4	0	0	---	0.00	29.782 
21:40	74.2	74.2	74.2	80	67.6	0	1	315	0.00	29.782 
21:45	74.0	74.0	74.0	80	67.4	0	1	315	0.00	29.790 
21:50	73.7	73.7	73.7	79	66.8	0	2	315	0.00	29.790 
21:55	73.5	73.5	73.5	79	66.6	0	1	315	0.00	29.790 
22:00	73.3	73.3	73.3	79	66.4	0	2	315	0.00	29.800 
22:05	73.3	73.3	73.3	79	66.4	0	1	315	0.00	29.800 
22:10	73.2	73.2	73.2	79	66.3	0	1	315	0.00	29.800 
22:15	73.0	73.0	73.0	80	66.5	0	2	315	0.00	29.803 
22:20	73.0	73.0	73.0	80	66.5	0	1	315	0.00	29.803 
22:25	72.8	72.8	72.8	80	66.3	0	1	315	0.00	29.803 
22:30	72.7	72.7	72.7	80	66.2	0	1	315	0.00	29.803 
22:35	72.7	72.7	72.7	80	66.2	0	1	315	0.00	29.803 
22:40	72.5	72.5	72.5	81	66.3	0	0	---	0.00	29.803 
22:45	72.3	72.3	72.3	81	66.1	0	1	315	0.00	29.805 
22:50	72.1	72.1	72.1	81	65.9	0	0	---	0.00	29.805 
22:55	72.0	72.0	72.0	82	66.2	0	0	---	0.00	29.805 
23:00	71.8	71.8	71.8	82	66.0	0	0	---	0.00	29.806 
23:05	71.8	71.8	71.8	83	66.3	0	0	---	0.00	29.806 
23:10	71.6	71.6	71.6	83	66.2	0	0	---	0.00	29.806 
23:15	71.5	71.5	71.5	83	66.1	0	0	---	0.00	29.806 
23:20	71.5	71.5	71.5	84	66.4	0	0	---	0.00	29.806 
23:25	71.3	71.3	71.3	84	66.2	0	1	315	0.00	29.806 
23:30	71.3	71.3	71.3	84	66.2	0	1	315	0.00	29.809 
23:35	71.3	71.3	71.3	85	66.5	0	1	315	0.00	29.809 
23:40	71.1	71.1	71.1	85	66.4	0	1	315	0.00	29.809 
23:45	71.1	71.1	71.1	85	66.4	0	1	315	0.00	29.812 
23:50	70.9	70.9	70.9	86	66.5	0	1	315	0.00	29.812 
23:55	70.9	70.9	70.9	86	66.5	0	1	315	0.00	29.812 

CoCoRaHS
IN-AL-39
A2 Web Hosting
Creative Commons License
GoDaddy
search engine by freefind advanced

loaded 2018-11-12 15:23:54 • last modified 2010-11-18 10:43:29
Privacy PolicyDisclaimer
• wx.awcolley.com is powered by PmWiki v.2002016 •
• all content (unless otherwise noted) © 2018 A W Colley